sensor_id;sensor_type;location;lat;lon;timestamp;P1;durP1;ratioP1;P2;durP2;ratioP2
33184;SDS011;19550;42.872;25.494;2023-04-07T00:01:44;17.23;;;10.73;;
33184;SDS011;19550;42.872;25.494;2023-04-07T00:04:11;17.73;;;11.95;;
33184;SDS011;19550;42.872;25.494;2023-04-07T00:06:38;19.05;;;11.32;;
33184;SDS011;19550;42.872;25.494;2023-04-07T00:09:04;20.42;;;12.57;;
33184;SDS011;19550;42.872;25.494;2023-04-07T00:11:32;17.33;;;11.63;;
33184;SDS011;19550;42.872;25.494;2023-04-07T00:14:00;17.13;;;10.73;;
33184;SDS011;19550;42.872;25.494;2023-04-07T00:16:27;16.27;;;11.02;;
33184;SDS011;19550;42.872;25.494;2023-04-07T00:18:54;19.05;;;11.40;;
33184;SDS011;19550;42.872;25.494;2023-04-07T00:21:20;15.50;;;10.80;;
33184;SDS011;19550;42.872;25.494;2023-04-07T00:23:47;20.05;;;11.70;;
33184;SDS011;19550;42.872;25.494;2023-04-07T00:26:14;27.35;;;15.05;;
33184;SDS011;19550;42.872;25.494;2023-04-07T00:28:41;21.25;;;11.35;;
33184;SDS011;19550;42.872;25.494;2023-04-07T00:31:09;16.27;;;10.77;;
33184;SDS011;19550;42.872;25.494;2023-04-07T00:33:36;19.10;;;10.40;;
33184;SDS011;19550;42.872;25.494;2023-04-07T00:36:03;21.50;;;11.40;;
33184;SDS011;19550;42.872;25.494;2023-04-07T00:38:30;15.23;;;11.25;;
33184;SDS011;19550;42.872;25.494;2023-04-07T00:40:57;19.88;;;11.93;;
33184;SDS011;19550;42.872;25.494;2023-04-07T00:43:25;18.42;;;11.32;;
33184;SDS011;19550;42.872;25.494;2023-04-07T00:45:51;17.17;;;11.95;;
33184;SDS011;19550;42.872;25.494;2023-04-07T00:48:20;15.35;;;10.55;;
33184;SDS011;19550;42.872;25.494;2023-04-07T00:50:47;19.20;;;11.32;;
33184;SDS011;19550;42.872;25.494;2023-04-07T00:53:14;16.33;;;11.13;;
33184;SDS011;19550;42.872;25.494;2023-04-07T00:55:41;16.17;;;10.57;;
33184;SDS011;19550;42.872;25.494;2023-04-07T00:58:08;18.98;;;11.18;;
33184;SDS011;19550;42.872;25.494;2023-04-07T01:00:37;17.02;;;10.52;;
33184;SDS011;19550;42.872;25.494;2023-04-07T01:03:12;17.65;;;10.88;;
33184;SDS011;19550;42.872;25.494;2023-04-07T01:05:49;14.93;;;10.27;;
33184;SDS011;19550;42.872;25.494;2023-04-07T01:08:20;17.02;;;11.00;;
33184;SDS011;19550;42.872;25.494;2023-04-07T01:10:55;16.33;;;10.82;;
33184;SDS011;19550;42.872;25.494;2023-04-07T01:13:29;18.50;;;11.15;;
33184;SDS011;19550;42.872;25.494;2023-04-07T01:16:02;17.15;;;10.90;;
33184;SDS011;19550;42.872;25.494;2023-04-07T01:18:32;18.00;;;11.02;;
33184;SDS011;19550;42.872;25.494;2023-04-07T01:23:37;17.35;;;11.38;;
33184;SDS011;19550;42.872;25.494;2023-04-07T01:26:16;14.40;;;10.13;;
33184;SDS011;19550;42.872;25.494;2023-04-07T01:28:49;16.00;;;10.68;;
33184;SDS011;19550;42.872;25.494;2023-04-07T01:31:27;17.73;;;11.02;;
33184;SDS011;19550;42.872;25.494;2023-04-07T01:33:56;17.63;;;11.20;;
33184;SDS011;19550;42.872;25.494;2023-04-07T01:36:26;16.10;;;10.63;;
33184;SDS011;19550;42.872;25.494;2023-04-07T01:38:56;19.42;;;10.82;;
33184;SDS011;19550;42.872;25.494;2023-04-07T01:41:24;21.75;;;11.48;;
33184;SDS011;19550;42.872;25.494;2023-04-07T01:43:53;19.13;;;11.85;;
33184;SDS011;19550;42.872;25.494;2023-04-07T01:46:20;18.23;;;12.40;;
33184;SDS011;19550;42.872;25.494;2023-04-07T01:48:48;21.23;;;12.07;;
33184;SDS011;19550;42.872;25.494;2023-04-07T01:51:16;17.63;;;11.35;;
33184;SDS011;19550;42.872;25.494;2023-04-07T01:53:46;17.63;;;11.38;;
33184;SDS011;19550;42.872;25.494;2023-04-07T01:56:13;17.92;;;10.95;;
33184;SDS011;19550;42.872;25.494;2023-04-07T01:58:41;19.48;;;11.95;;
33184;SDS011;19550;42.872;25.494;2023-04-07T02:01:08;18.67;;;12.00;;
33184;SDS011;19550;42.872;25.494;2023-04-07T02:03:39;18.08;;;11.55;;
33184;SDS011;19550;42.872;25.494;2023-04-07T02:06:12;36.55;;;20.90;;
33184;SDS011;19550;42.872;25.494;2023-04-07T02:08:45;15.93;;;10.98;;
33184;SDS011;19550;42.872;25.494;2023-04-07T02:11:16;19.33;;;11.15;;
33184;SDS011;19550;42.872;25.494;2023-04-07T02:16:12;21.75;;;10.68;;
33184;SDS011;19550;42.872;25.494;2023-04-07T02:18:42;15.52;;;10.95;;
33184;SDS011;19550;42.872;25.494;2023-04-07T02:21:13;15.88;;;10.38;;
33184;SDS011;19550;42.872;25.494;2023-04-07T02:23:40;18.47;;;10.70;;
33184;SDS011;19550;42.872;25.494;2023-04-07T02:26:07;45.03;;;10.85;;
33184;SDS011;19550;42.872;25.494;2023-04-07T02:28:35;17.20;;;11.23;;
33184;SDS011;19550;42.872;25.494;2023-04-07T02:31:02;17.52;;;11.15;;
33184;SDS011;19550;42.872;25.494;2023-04-07T02:33:29;15.32;;;10.80;;
33184;SDS011;19550;42.872;25.494;2023-04-07T02:35:56;20.13;;;11.10;;
33184;SDS011;19550;42.872;25.494;2023-04-07T02:38:24;16.00;;;11.05;;
33184;SDS011;19550;42.872;25.494;2023-04-07T02:40:51;18.98;;;11.38;;
33184;SDS011;19550;42.872;25.494;2023-04-07T02:43:18;16.20;;;10.40;;
33184;SDS011;19550;42.872;25.494;2023-04-07T02:45:45;16.27;;;11.02;;
33184;SDS011;19550;42.872;25.494;2023-04-07T02:48:12;18.35;;;11.20;;
33184;SDS011;19550;42.872;25.494;2023-04-07T02:50:39;14.95;;;10.70;;
33184;SDS011;19550;42.872;25.494;2023-04-07T02:53:06;18.33;;;11.43;;
33184;SDS011;19550;42.872;25.494;2023-04-07T02:55:34;17.08;;;11.55;;
33184;SDS011;19550;42.872;25.494;2023-04-07T02:58:01;19.70;;;12.73;;
33184;SDS011;19550;42.872;25.494;2023-04-07T03:00:28;18.42;;;12.45;;
33184;SDS011;19550;42.872;25.494;2023-04-07T03:02:55;23.17;;;12.00;;
33184;SDS011;19550;42.872;25.494;2023-04-07T03:05:22;16.55;;;11.02;;
33184;SDS011;19550;42.872;25.494;2023-04-07T03:07:48;33.53;;;19.45;;
33184;SDS011;19550;42.872;25.494;2023-04-07T03:10:15;22.05;;;13.95;;
33184;SDS011;19550;42.872;25.494;2023-04-07T03:12:44;24.88;;;15.52;;
33184;SDS011;19550;42.872;25.494;2023-04-07T03:15:10;36.45;;;21.45;;
33184;SDS011;19550;42.872;25.494;2023-04-07T03:17:37;51.15;;;31.65;;
33184;SDS011;19550;42.872;25.494;2023-04-07T03:20:05;36.13;;;21.98;;
33184;SDS011;19550;42.872;25.494;2023-04-07T03:22:33;42.35;;;25.00;;
33184;SDS011;19550;42.872;25.494;2023-04-07T03:24:59;36.08;;;21.33;;
33184;SDS011;19550;42.872;25.494;2023-04-07T03:27:26;25.48;;;15.82;;
33184;SDS011;19550;42.872;25.494;2023-04-07T03:29:54;21.00;;;13.68;;
33184;SDS011;19550;42.872;25.494;2023-04-07T03:32:21;19.20;;;13.20;;
33184;SDS011;19550;42.872;25.494;2023-04-07T03:34:48;22.88;;;13.57;;
33184;SDS011;19550;42.872;25.494;2023-04-07T03:37:15;20.58;;;12.75;;
33184;SDS011;19550;42.872;25.494;2023-04-07T03:39:41;18.50;;;13.18;;
33184;SDS011;19550;42.872;25.494;2023-04-07T03:42:08;20.58;;;14.60;;
33184;SDS011;19550;42.872;25.494;2023-04-07T03:44:35;23.65;;;14.73;;
33184;SDS011;19550;42.872;25.494;2023-04-07T03:47:03;22.25;;;13.82;;
33184;SDS011;19550;42.872;25.494;2023-04-07T03:49:30;24.77;;;15.05;;
33184;SDS011;19550;42.872;25.494;2023-04-07T03:51:57;21.48;;;15.70;;
33184;SDS011;19550;42.872;25.494;2023-04-07T03:54:24;20.33;;;14.25;;
33184;SDS011;19550;42.872;25.494;2023-04-07T03:56:50;21.85;;;13.35;;
33184;SDS011;19550;42.872;25.494;2023-04-07T03:59:17;19.45;;;12.50;;
33184;SDS011;19550;42.872;25.494;2023-04-07T04:01:44;23.40;;;14.95;;
33184;SDS011;19550;42.872;25.494;2023-04-07T04:04:12;23.33;;;13.65;;
33184;SDS011;19550;42.872;25.494;2023-04-07T04:06:39;23.17;;;15.70;;
33184;SDS011;19550;42.872;25.494;2023-04-07T04:09:06;29.05;;;17.88;;
33184;SDS011;19550;42.872;25.494;2023-04-07T04:11:33;39.33;;;21.92;;
33184;SDS011;19550;42.872;25.494;2023-04-07T04:14:00;30.67;;;18.95;;
33184;SDS011;19550;42.872;25.494;2023-04-07T04:16:27;25.17;;;17.65;;
33184;SDS011;19550;42.872;25.494;2023-04-07T04:18:55;26.80;;;15.75;;
33184;SDS011;19550;42.872;25.494;2023-04-07T04:21:23;25.55;;;16.60;;
33184;SDS011;19550;42.872;25.494;2023-04-07T04:23:51;32.95;;;18.13;;
33184;SDS011;19550;42.872;25.494;2023-04-07T04:26:18;56.20;;;32.15;;
33184;SDS011;19550;42.872;25.494;2023-04-07T04:28:45;63.75;;;36.72;;
33184;SDS011;19550;42.872;25.494;2023-04-07T04:31:11;51.50;;;29.88;;
33184;SDS011;19550;42.872;25.494;2023-04-07T04:33:38;39.55;;;23.83;;
33184;SDS011;19550;42.872;25.494;2023-04-07T04:36:05;59.25;;;33.00;;
33184;SDS011;19550;42.872;25.494;2023-04-07T04:38:34;30.50;;;19.58;;
33184;SDS011;19550;42.872;25.494;2023-04-07T04:41:00;38.75;;;21.73;;
33184;SDS011;19550;42.872;25.494;2023-04-07T04:43:27;37.90;;;26.77;;
33184;SDS011;19550;42.872;25.494;2023-04-07T04:45:54;38.42;;;22.48;;
33184;SDS011;19550;42.872;25.494;2023-04-07T04:48:21;26.58;;;17.38;;
33184;SDS011;19550;42.872;25.494;2023-04-07T04:50:48;39.40;;;24.38;;
33184;SDS011;19550;42.872;25.494;2023-04-07T04:53:15;51.83;;;32.95;;
33184;SDS011;19550;42.872;25.494;2023-04-07T04:55:43;37.22;;;24.38;;
33184;SDS011;19550;42.872;25.494;2023-04-07T04:58:15;35.08;;;22.92;;
33184;SDS011;19550;42.872;25.494;2023-04-07T05:00:42;40.30;;;24.30;;
33184;SDS011;19550;42.872;25.494;2023-04-07T05:03:09;50.70;;;27.05;;
33184;SDS011;19550;42.872;25.494;2023-04-07T05:05:36;57.58;;;30.30;;
33184;SDS011;19550;42.872;25.494;2023-04-07T05:08:03;49.83;;;29.38;;
33184;SDS011;19550;42.872;25.494;2023-04-07T05:10:31;45.53;;;25.15;;
33184;SDS011;19550;42.872;25.494;2023-04-07T05:12:59;47.10;;;26.10;;
33184;SDS011;19550;42.872;25.494;2023-04-07T05:15:26;40.65;;;24.75;;
33184;SDS011;19550;42.872;25.494;2023-04-07T05:17:53;49.17;;;29.08;;
33184;SDS011;19550;42.872;25.494;2023-04-07T05:20:20;66.80;;;35.47;;
33184;SDS011;19550;42.872;25.494;2023-04-07T05:22:47;63.53;;;39.60;;
33184;SDS011;19550;42.872;25.494;2023-04-07T05:25:13;74.28;;;41.00;;
33184;SDS011;19550;42.872;25.494;2023-04-07T05:27:40;90.88;;;45.63;;
33184;SDS011;19550;42.872;25.494;2023-04-07T05:30:09;84.45;;;46.60;;
33184;SDS011;19550;42.872;25.494;2023-04-07T05:32:36;78.75;;;44.58;;
33184;SDS011;19550;42.872;25.494;2023-04-07T05:35:03;87.90;;;46.05;;
33184;SDS011;19550;42.872;25.494;2023-04-07T05:37:31;77.00;;;41.15;;
33184;SDS011;19550;42.872;25.494;2023-04-07T05:39:57;93.40;;;46.60;;
33184;SDS011;19550;42.872;25.494;2023-04-07T05:42:24;81.03;;;44.88;;
33184;SDS011;19550;42.872;25.494;2023-04-07T05:44:51;95.75;;;51.70;;
33184;SDS011;19550;42.872;25.494;2023-04-07T05:47:19;83.40;;;46.20;;
33184;SDS011;19550;42.872;25.494;2023-04-07T05:49:46;84.45;;;46.03;;
33184;SDS011;19550;42.872;25.494;2023-04-07T05:52:13;73.53;;;41.53;;
33184;SDS011;19550;42.872;25.494;2023-04-07T05:54:40;78.43;;;41.92;;
33184;SDS011;19550;42.872;25.494;2023-04-07T05:57:07;70.47;;;41.13;;
33184;SDS011;19550;42.872;25.494;2023-04-07T05:59:34;55.45;;;33.85;;
33184;SDS011;19550;42.872;25.494;2023-04-07T06:02:01;47.20;;;29.08;;
33184;SDS011;19550;42.872;25.494;2023-04-07T06:04:29;41.08;;;25.40;;
33184;SDS011;19550;42.872;25.494;2023-04-07T06:06:57;49.13;;;26.42;;
33184;SDS011;19550;42.872;25.494;2023-04-07T06:09:23;44.67;;;23.95;;
33184;SDS011;19550;42.872;25.494;2023-04-07T06:11:50;34.83;;;17.83;;
33184;SDS011;19550;42.872;25.494;2023-04-07T06:14:17;32.97;;;18.90;;
33184;SDS011;19550;42.872;25.494;2023-04-07T06:16:44;34.08;;;18.55;;
33184;SDS011;19550;42.872;25.494;2023-04-07T06:19:11;32.67;;;16.52;;
33184;SDS011;19550;42.872;25.494;2023-04-07T06:21:39;45.38;;;18.23;;
33184;SDS011;19550;42.872;25.494;2023-04-07T06:24:06;23.92;;;13.55;;
33184;SDS011;19550;42.872;25.494;2023-04-07T06:26:33;20.17;;;11.25;;
33184;SDS011;19550;42.872;25.494;2023-04-07T06:29:01;20.88;;;11.40;;
33184;SDS011;19550;42.872;25.494;2023-04-07T06:31:27;19.77;;;11.70;;
33184;SDS011;19550;42.872;25.494;2023-04-07T06:33:54;20.77;;;10.90;;
33184;SDS011;19550;42.872;25.494;2023-04-07T06:36:21;27.63;;;19.02;;
33184;SDS011;19550;42.872;25.494;2023-04-07T06:38:50;15.93;;;10.00;;
33184;SDS011;19550;42.872;25.494;2023-04-07T06:41:17;22.02;;;9.88;;
33184;SDS011;19550;42.872;25.494;2023-04-07T06:43:45;14.10;;;9.02;;
33184;SDS011;19550;42.872;25.494;2023-04-07T06:46:12;16.25;;;8.98;;
33184;SDS011;19550;42.872;25.494;2023-04-07T06:48:39;14.88;;;9.13;;
33184;SDS011;19550;42.872;25.494;2023-04-07T06:51:07;24.95;;;10.77;;
33184;SDS011;19550;42.872;25.494;2023-04-07T06:53:33;16.83;;;10.30;;
33184;SDS011;19550;42.872;25.494;2023-04-07T06:56:06;18.23;;;10.65;;
33184;SDS011;19550;42.872;25.494;2023-04-07T06:58:33;16.63;;;9.65;;
33184;SDS011;19550;42.872;25.494;2023-04-07T07:01:01;19.30;;;9.55;;
33184;SDS011;19550;42.872;25.494;2023-04-07T07:03:28;17.70;;;8.82;;
33184;SDS011;19550;42.872;25.494;2023-04-07T07:05:56;18.60;;;9.48;;
33184;SDS011;19550;42.872;25.494;2023-04-07T07:08:23;14.20;;;8.57;;
33184;SDS011;19550;42.872;25.494;2023-04-07T07:10:50;14.57;;;9.25;;
33184;SDS011;19550;42.872;25.494;2023-04-07T07:13:21;16.75;;;9.20;;
33184;SDS011;19550;42.872;25.494;2023-04-07T07:15:49;15.57;;;9.35;;
33184;SDS011;19550;42.872;25.494;2023-04-07T07:18:16;16.92;;;9.23;;
33184;SDS011;19550;42.872;25.494;2023-04-07T07:20:43;15.55;;;8.43;;
33184;SDS011;19550;42.872;25.494;2023-04-07T07:23:10;15.50;;;10.20;;
33184;SDS011;19550;42.872;25.494;2023-04-07T07:25:37;16.90;;;10.35;;
33184;SDS011;19550;42.872;25.494;2023-04-07T07:28:04;13.98;;;8.38;;
33184;SDS011;19550;42.872;25.494;2023-04-07T07:30:32;17.58;;;8.05;;
33184;SDS011;19550;42.872;25.494;2023-04-07T07:32:59;12.57;;;8.88;;
33184;SDS011;19550;42.872;25.494;2023-04-07T07:35:25;15.10;;;8.75;;
33184;SDS011;19550;42.872;25.494;2023-04-07T07:37:52;19.98;;;9.63;;
33184;SDS011;19550;42.872;25.494;2023-04-07T07:40:19;19.42;;;10.23;;
33184;SDS011;19550;42.872;25.494;2023-04-07T07:42:46;13.70;;;8.65;;
33184;SDS011;19550;42.872;25.494;2023-04-07T07:45:13;14.70;;;8.27;;
33184;SDS011;19550;42.872;25.494;2023-04-07T07:47:43;13.48;;;7.97;;
33184;SDS011;19550;42.872;25.494;2023-04-07T07:50:09;13.25;;;8.55;;
33184;SDS011;19550;42.872;25.494;2023-04-07T07:52:36;16.35;;;8.70;;
33184;SDS011;19550;42.872;25.494;2023-04-07T07:55:03;16.25;;;8.80;;
33184;SDS011;19550;42.872;25.494;2023-04-07T07:57:30;14.18;;;8.48;;
33184;SDS011;19550;42.872;25.494;2023-04-07T07:59:57;20.23;;;12.00;;
33184;SDS011;19550;42.872;25.494;2023-04-07T08:02:24;15.38;;;10.35;;
33184;SDS011;19550;42.872;25.494;2023-04-07T08:04:56;14.88;;;8.30;;
33184;SDS011;19550;42.872;25.494;2023-04-07T08:07:23;18.45;;;8.38;;
33184;SDS011;19550;42.872;25.494;2023-04-07T08:09:51;14.82;;;7.85;;
33184;SDS011;19550;42.872;25.494;2023-04-07T08:12:18;14.90;;;8.60;;
33184;SDS011;19550;42.872;25.494;2023-04-07T08:14:45;17.30;;;8.68;;
33184;SDS011;19550;42.872;25.494;2023-04-07T08:17:12;17.52;;;8.38;;
33184;SDS011;19550;42.872;25.494;2023-04-07T08:19:38;13.23;;;8.15;;
33184;SDS011;19550;42.872;25.494;2023-04-07T08:22:07;12.82;;;7.80;;
33184;SDS011;19550;42.872;25.494;2023-04-07T08:24:34;11.38;;;7.82;;
33184;SDS011;19550;42.872;25.494;2023-04-07T08:27:00;18.50;;;8.48;;
33184;SDS011;19550;42.872;25.494;2023-04-07T08:29:27;11.50;;;7.75;;
33184;SDS011;19550;42.872;25.494;2023-04-07T08:31:54;21.52;;;7.75;;
33184;SDS011;19550;42.872;25.494;2023-04-07T08:34:21;13.40;;;8.32;;
33184;SDS011;19550;42.872;25.494;2023-04-07T08:36:48;13.57;;;9.10;;
33184;SDS011;19550;42.872;25.494;2023-04-07T08:39:16;12.25;;;7.30;;
33184;SDS011;19550;42.872;25.494;2023-04-07T08:41:43;10.82;;;8.02;;
33184;SDS011;19550;42.872;25.494;2023-04-07T08:44:12;14.27;;;7.40;;
33184;SDS011;19550;42.872;25.494;2023-04-07T08:46:41;12.25;;;7.90;;
33184;SDS011;19550;42.872;25.494;2023-04-07T08:49:09;12.43;;;7.95;;
33184;SDS011;19550;42.872;25.494;2023-04-07T08:51:41;13.07;;;8.57;;
33184;SDS011;19550;42.872;25.494;2023-04-07T08:54:12;13.55;;;8.40;;
33184;SDS011;19550;42.872;25.494;2023-04-07T08:56:41;11.25;;;7.95;;
33184;SDS011;19550;42.872;25.494;2023-04-07T08:59:09;14.25;;;7.88;;
33184;SDS011;19550;42.872;25.494;2023-04-07T09:01:37;10.73;;;7.65;;
33184;SDS011;19550;42.872;25.494;2023-04-07T09:04:05;9.63;;;7.05;;
33184;SDS011;19550;42.872;25.494;2023-04-07T09:06:33;10.65;;;8.00;;
33184;SDS011;19550;42.872;25.494;2023-04-07T09:09:00;10.32;;;8.13;;
33184;SDS011;19550;42.872;25.494;2023-04-07T09:11:33;15.57;;;8.18;;
33184;SDS011;19550;42.872;25.494;2023-04-07T09:14:02;11.48;;;8.10;;
33184;SDS011;19550;42.872;25.494;2023-04-07T09:16:29;18.38;;;10.73;;
33184;SDS011;19550;42.872;25.494;2023-04-07T09:18:56;11.85;;;8.32;;
33184;SDS011;19550;42.872;25.494;2023-04-07T09:21:23;11.40;;;8.25;;
33184;SDS011;19550;42.872;25.494;2023-04-07T09:23:51;13.05;;;8.43;;
33184;SDS011;19550;42.872;25.494;2023-04-07T09:26:19;11.52;;;8.77;;
33184;SDS011;19550;42.872;25.494;2023-04-07T09:28:48;13.05;;;8.63;;
33184;SDS011;19550;42.872;25.494;2023-04-07T09:31:17;10.38;;;8.40;;
33184;SDS011;19550;42.872;25.494;2023-04-07T09:33:45;10.60;;;8.07;;
33184;SDS011;19550;42.872;25.494;2023-04-07T09:36:12;9.20;;;7.20;;
33184;SDS011;19550;42.872;25.494;2023-04-07T09:38:39;11.65;;;8.07;;
33184;SDS011;19550;42.872;25.494;2023-04-07T09:41:07;12.18;;;8.55;;
33184;SDS011;19550;42.872;25.494;2023-04-07T09:43:36;12.13;;;8.38;;
33184;SDS011;19550;42.872;25.494;2023-04-07T09:46:08;15.80;;;8.57;;
33184;SDS011;19550;42.872;25.494;2023-04-07T09:48:37;11.77;;;8.63;;
33184;SDS011;19550;42.872;25.494;2023-04-07T09:51:04;14.30;;;8.77;;
33184;SDS011;19550;42.872;25.494;2023-04-07T09:53:45;13.05;;;7.57;;
33184;SDS011;19550;42.872;25.494;2023-04-07T09:56:13;11.20;;;8.10;;
33184;SDS011;19550;42.872;25.494;2023-04-07T09:58:42;14.20;;;8.18;;
33184;SDS011;19550;42.872;25.494;2023-04-07T10:01:10;15.02;;;9.73;;
33184;SDS011;19550;42.872;25.494;2023-04-07T10:03:39;10.68;;;8.02;;
33184;SDS011;19550;42.872;25.494;2023-04-07T10:06:06;13.65;;;8.50;;
33184;SDS011;19550;42.872;25.494;2023-04-07T10:08:33;12.35;;;8.02;;
33184;SDS011;19550;42.872;25.494;2023-04-07T10:11:02;9.95;;;7.68;;
33184;SDS011;19550;42.872;25.494;2023-04-07T10:13:31;13.10;;;8.15;;
33184;SDS011;19550;42.872;25.494;2023-04-07T10:15:59;13.05;;;8.82;;
33184;SDS011;19550;42.872;25.494;2023-04-07T10:20:57;13.23;;;8.38;;
33184;SDS011;19550;42.872;25.494;2023-04-07T10:23:30;17.58;;;9.63;;
33184;SDS011;19550;42.872;25.494;2023-04-07T10:26:02;13.32;;;9.13;;
33184;SDS011;19550;42.872;25.494;2023-04-07T10:28:31;11.15;;;8.98;;
33184;SDS011;19550;42.872;25.494;2023-04-07T10:31:00;12.85;;;8.93;;
33184;SDS011;19550;42.872;25.494;2023-04-07T10:33:43;12.93;;;8.73;;
33184;SDS011;19550;42.872;25.494;2023-04-07T10:36:12;12.45;;;9.27;;
33184;SDS011;19550;42.872;25.494;2023-04-07T10:38:39;13.25;;;9.93;;
33184;SDS011;19550;42.872;25.494;2023-04-07T10:44:00;14.90;;;9.30;;
33184;SDS011;19550;42.872;25.494;2023-04-07T10:49:33;16.98;;;10.93;;
33184;SDS011;19550;42.872;25.494;2023-04-07T10:52:21;12.57;;;9.77;;
33184;SDS011;19550;42.872;25.494;2023-04-07T10:54:57;14.23;;;9.68;;
33184;SDS011;19550;42.872;25.494;2023-04-07T10:58:13;12.20;;;8.60;;
33184;SDS011;19550;42.872;25.494;2023-04-07T11:03:56;15.98;;;9.65;;
33184;SDS011;19550;42.872;25.494;2023-04-07T11:06:25;11.45;;;8.50;;
33184;SDS011;19550;42.872;25.494;2023-04-07T11:08:53;15.95;;;9.10;;
33184;SDS011;19550;42.872;25.494;2023-04-07T11:11:36;12.95;;;10.35;;
33184;SDS011;19550;42.872;25.494;2023-04-07T11:14:05;16.13;;;8.80;;
33184;SDS011;19550;42.872;25.494;2023-04-07T11:16:35;13.85;;;8.80;;
33184;SDS011;19550;42.872;25.494;2023-04-07T11:19:04;12.55;;;9.40;;
33184;SDS011;19550;42.872;25.494;2023-04-07T11:21:30;11.18;;;8.20;;
33184;SDS011;19550;42.872;25.494;2023-04-07T11:23:58;13.73;;;9.50;;
33184;SDS011;19550;42.872;25.494;2023-04-07T11:26:25;26.85;;;17.90;;
33184;SDS011;19550;42.872;25.494;2023-04-07T11:28:53;14.15;;;9.82;;
33184;SDS011;19550;42.872;25.494;2023-04-07T11:31:21;9.77;;;7.78;;
33184;SDS011;19550;42.872;25.494;2023-04-07T11:33:53;13.07;;;10.30;;
33184;SDS011;19550;42.872;25.494;2023-04-07T11:36:27;13.50;;;10.13;;
33184;SDS011;19550;42.872;25.494;2023-04-07T11:38:56;12.75;;;10.23;;
33184;SDS011;19550;42.872;25.494;2023-04-07T11:41:25;15.23;;;11.57;;
33184;SDS011;19550;42.872;25.494;2023-04-07T11:44:04;14.15;;;10.40;;
33184;SDS011;19550;42.872;25.494;2023-04-07T11:46:32;16.25;;;11.95;;
33184;SDS011;19550;42.872;25.494;2023-04-07T11:49:10;17.95;;;8.80;;
33184;SDS011;19550;42.872;25.494;2023-04-07T11:51:37;14.95;;;9.38;;
33184;SDS011;19550;42.872;25.494;2023-04-07T11:54:05;16.65;;;10.45;;
33184;SDS011;19550;42.872;25.494;2023-04-07T11:56:43;16.90;;;10.82;;
33184;SDS011;19550;42.872;25.494;2023-04-07T11:59:18;15.02;;;9.18;;
33184;SDS011;19550;42.872;25.494;2023-04-07T12:01:47;16.95;;;9.38;;
33184;SDS011;19550;42.872;25.494;2023-04-07T12:04:14;17.55;;;10.65;;
33184;SDS011;19550;42.872;25.494;2023-04-07T12:06:42;14.30;;;9.93;;
33184;SDS011;19550;42.872;25.494;2023-04-07T12:09:24;25.77;;;11.65;;
33184;SDS011;19550;42.872;25.494;2023-04-07T12:11:54;20.38;;;12.40;;
33184;SDS011;19550;42.872;25.494;2023-04-07T12:14:22;16.15;;;9.80;;
33184;SDS011;19550;42.872;25.494;2023-04-07T12:16:49;14.98;;;9.63;;
33184;SDS011;19550;42.872;25.494;2023-04-07T12:19:17;15.07;;;9.68;;
33184;SDS011;19550;42.872;25.494;2023-04-07T12:21:43;19.60;;;11.32;;
33184;SDS011;19550;42.872;25.494;2023-04-07T12:24:10;20.17;;;13.38;;
33184;SDS011;19550;42.872;25.494;2023-04-07T12:26:37;19.02;;;11.63;;
33184;SDS011;19550;42.872;25.494;2023-04-07T12:29:05;14.75;;;9.85;;
33184;SDS011;19550;42.872;25.494;2023-04-07T12:31:32;17.13;;;9.85;;
33184;SDS011;19550;42.872;25.494;2023-04-07T12:33:59;21.90;;;12.07;;
33184;SDS011;19550;42.872;25.494;2023-04-07T12:36:26;19.33;;;10.57;;
33184;SDS011;19550;42.872;25.494;2023-04-07T12:38:53;20.10;;;12.48;;
33184;SDS011;19550;42.872;25.494;2023-04-07T12:41:20;31.55;;;17.10;;
33184;SDS011;19550;42.872;25.494;2023-04-07T12:43:48;29.45;;;15.93;;
33184;SDS011;19550;42.872;25.494;2023-04-07T12:46:16;24.27;;;14.32;;
33184;SDS011;19550;42.872;25.494;2023-04-07T12:48:43;40.42;;;22.63;;
33184;SDS011;19550;42.872;25.494;2023-04-07T12:51:09;27.33;;;15.43;;
33184;SDS011;19550;42.872;25.494;2023-04-07T12:53:36;23.52;;;16.00;;
33184;SDS011;19550;42.872;25.494;2023-04-07T12:56:03;23.90;;;13.60;;
33184;SDS011;19550;42.872;25.494;2023-04-07T12:58:30;35.03;;;20.95;;
33184;SDS011;19550;42.872;25.494;2023-04-07T13:00:57;26.58;;;14.23;;
33184;SDS011;19550;42.872;25.494;2023-04-07T13:03:26;22.38;;;13.90;;
33184;SDS011;19550;42.872;25.494;2023-04-07T13:05:52;21.95;;;12.20;;
33184;SDS011;19550;42.872;25.494;2023-04-07T13:08:19;17.35;;;11.52;;
33184;SDS011;19550;42.872;25.494;2023-04-07T13:10:46;21.50;;;14.20;;
33184;SDS011;19550;42.872;25.494;2023-04-07T13:13:13;31.63;;;18.73;;
33184;SDS011;19550;42.872;25.494;2023-04-07T13:15:40;24.10;;;14.98;;
33184;SDS011;19550;42.872;25.494;2023-04-07T13:18:07;22.30;;;13.40;;
33184;SDS011;19550;42.872;25.494;2023-04-07T13:20:35;20.90;;;13.35;;
33184;SDS011;19550;42.872;25.494;2023-04-07T13:23:02;25.58;;;14.32;;
33184;SDS011;19550;42.872;25.494;2023-04-07T13:25:29;35.47;;;25.15;;
33184;SDS011;19550;42.872;25.494;2023-04-07T13:27:55;21.20;;;15.55;;
33184;SDS011;19550;42.872;25.494;2023-04-07T13:30:23;23.60;;;16.27;;
33184;SDS011;19550;42.872;25.494;2023-04-07T13:32:51;34.67;;;22.48;;
33184;SDS011;19550;42.872;25.494;2023-04-07T13:35:18;57.17;;;36.17;;
33184;SDS011;19550;42.872;25.494;2023-04-07T13:37:46;36.50;;;27.35;;
33184;SDS011;19550;42.872;25.494;2023-04-07T13:40:13;26.13;;;15.73;;
33184;SDS011;19550;42.872;25.494;2023-04-07T13:42:42;50.83;;;28.70;;
33184;SDS011;19550;42.872;25.494;2023-04-07T13:45:09;31.42;;;18.45;;
33184;SDS011;19550;42.872;25.494;2023-04-07T13:47:35;43.88;;;22.73;;
33184;SDS011;19550;42.872;25.494;2023-04-07T13:50:03;43.78;;;23.55;;
33184;SDS011;19550;42.872;25.494;2023-04-07T13:52:30;59.88;;;41.28;;
33184;SDS011;19550;42.872;25.494;2023-04-07T13:55:00;18.63;;;13.68;;
33184;SDS011;19550;42.872;25.494;2023-04-07T13:57:29;29.25;;;17.88;;
33184;SDS011;19550;42.872;25.494;2023-04-07T13:59:56;25.10;;;16.58;;
33184;SDS011;19550;42.872;25.494;2023-04-07T14:02:24;42.33;;;28.67;;
33184;SDS011;19550;42.872;25.494;2023-04-07T14:04:52;54.92;;;44.95;;
33184;SDS011;19550;42.872;25.494;2023-04-07T14:07:19;27.85;;;19.30;;
33184;SDS011;19550;42.872;25.494;2023-04-07T14:09:47;26.58;;;17.58;;
33184;SDS011;19550;42.872;25.494;2023-04-07T14:12:15;21.75;;;14.90;;
33184;SDS011;19550;42.872;25.494;2023-04-07T14:14:42;40.38;;;27.50;;
33184;SDS011;19550;42.872;25.494;2023-04-07T14:17:08;21.90;;;14.88;;
33184;SDS011;19550;42.872;25.494;2023-04-07T14:19:35;34.53;;;23.25;;
33184;SDS011;19550;42.872;25.494;2023-04-07T14:22:02;37.55;;;25.25;;
33184;SDS011;19550;42.872;25.494;2023-04-07T14:24:29;25.30;;;13.75;;
33184;SDS011;19550;42.872;25.494;2023-04-07T14:26:56;24.50;;;14.05;;
33184;SDS011;19550;42.872;25.494;2023-04-07T14:29:24;28.35;;;17.60;;
33184;SDS011;19550;42.872;25.494;2023-04-07T14:31:51;30.60;;;19.58;;
33184;SDS011;19550;42.872;25.494;2023-04-07T14:34:18;39.17;;;20.88;;
33184;SDS011;19550;42.872;25.494;2023-04-07T14:36:51;23.40;;;13.25;;